Search for airport 
image banner adimage banner adimage banner ad
image banner ad

PA47 - Cloudbound

Located in Gettysburg, United States

ICAO - PA47, IATA -

Data provided by Airmate  

General information

Coordinates: N39°46'51" W77°16'43"
Elevation is 600 feet MSL.
 
View others Airports in Pennsylvania

Operational data

Special qualification required
Current time UTC:
Current local time:
METAR: KDMW 071315Z AUTO 13011G15KT 10SM BKN070 14/02 A2989 RMK AO2
View NOTAMs / SUP AIP / TFR affecting this airport [VIEW]
Communications frequencies: [VIEW]

Runways:

RWY identifierQFULength (ft)Width (ft)SurfaceLDA (ft)
052020100GRASS
232020100GRASS

Airport contact information

Address: Gettysburg United States

Satellite view of PA47